sensor_id;sensor_type;location;lat;lon;timestamp;temperature;humidity
75161;DHT22;63738;50.096;8.716;2022-10-22T00:02:18;16.00;91.20
75161;DHT22;63738;50.096;8.716;2022-10-22T00:04:45;16.10;91.00
75161;DHT22;63738;50.096;8.716;2022-10-22T00:07:11;16.10;91.00
75161;DHT22;63738;50.096;8.716;2022-10-22T00:09:37;16.10;91.00
75161;DHT22;63738;50.096;8.716;2022-10-22T00:12:03;16.10;91.10
75161;DHT22;63738;50.096;8.716;2022-10-22T00:14:28;16.10;91.10
75161;DHT22;63738;50.096;8.716;2022-10-22T00:16:54;16.10;91.00
75161;DHT22;63738;50.096;8.716;2022-10-22T00:19:20;16.10;91.10
75161;DHT22;63738;50.096;8.716;2022-10-22T00:21:46;16.10;91.00
75161;DHT22;63738;50.096;8.716;2022-10-22T00:24:12;16.10;91.10
75161;DHT22;63738;50.096;8.716;2022-10-22T00:26:37;16.10;91.20
75161;DHT22;63738;50.096;8.716;2022-10-22T00:29:05;16.10;91.00
75161;DHT22;63738;50.096;8.716;2022-10-22T00:31:30;16.20;90.90
75161;DHT22;63738;50.096;8.716;2022-10-22T00:33:56;16.20;90.90
75161;DHT22;63738;50.096;8.716;2022-10-22T00:36:21;16.30;90.80
75161;DHT22;63738;50.096;8.716;2022-10-22T00:38:47;16.20;90.80
75161;DHT22;63738;50.096;8.716;2022-10-22T00:41:13;16.20;90.90
75161;DHT22;63738;50.096;8.716;2022-10-22T00:43:55;16.30;90.80
75161;DHT22;63738;50.096;8.716;2022-10-22T00:46:21;16.20;91.00
75161;DHT22;63738;50.096;8.716;2022-10-22T00:48:46;16.30;90.90
75161;DHT22;63738;50.096;8.716;2022-10-22T00:51:12;16.30;90.70
75161;DHT22;63738;50.096;8.716;2022-10-22T00:54:00;16.30;90.70
75161;DHT22;63738;50.096;8.716;2022-10-22T00:56:27;16.30;90.70
75161;DHT22;63738;50.096;8.716;2022-10-22T00:58:56;16.30;90.70
75161;DHT22;63738;50.096;8.716;2022-10-22T01:01:26;16.20;90.90
75161;DHT22;63738;50.096;8.716;2022-10-22T01:03:52;16.20;90.90
75161;DHT22;63738;50.096;8.716;2022-10-22T01:06:30;16.20;90.70
75161;DHT22;63738;50.096;8.716;2022-10-22T01:09:15;16.20;90.70
75161;DHT22;63738;50.096;8.716;2022-10-22T01:12:10;16.20;90.70
75161;DHT22;63738;50.096;8.716;2022-10-22T01:15:02;16.30;90.60
75161;DHT22;63738;50.096;8.716;2022-10-22T01:17:58;16.20;90.80
75161;DHT22;63738;50.096;8.716;2022-10-22T01:20:55;16.40;90.10
75161;DHT22;63738;50.096;8.716;2022-10-22T01:29:17;16.50;89.00
75161;DHT22;63738;50.096;8.716;2022-10-22T01:31:47;16.50;88.50
75161;DHT22;63738;50.096;8.716;2022-10-22T01:34:15;16.40;88.70
75161;DHT22;63738;50.096;8.716;2022-10-22T01:36:43;16.40;88.80
75161;DHT22;63738;50.096;8.716;2022-10-22T01:39:11;16.50;88.40
75161;DHT22;63738;50.096;8.716;2022-10-22T01:41:39;16.40;88.60
75161;DHT22;63738;50.096;8.716;2022-10-22T01:44:25;16.40;88.40
75161;DHT22;63738;50.096;8.716;2022-10-22T01:49:57;16.40;88.10
75161;DHT22;63738;50.096;8.716;2022-10-22T01:52:38;16.40;88.30
75161;DHT22;63738;50.096;8.716;2022-10-22T01:58:00;16.30;88.30
75161;DHT22;63738;50.096;8.716;2022-10-22T02:00:27;16.30;88.50
75161;DHT22;63738;50.096;8.716;2022-10-22T02:03:01;16.40;88.50
75161;DHT22;63738;50.096;8.716;2022-10-22T02:05:42;16.40;88.10
75161;DHT22;63738;50.096;8.716;2022-10-22T02:08:13;16.50;88.10
75161;DHT22;63738;50.096;8.716;2022-10-22T02:10:42;16.40;88.40
75161;DHT22;63738;50.096;8.716;2022-10-22T02:13:13;16.30;88.60
75161;DHT22;63738;50.096;8.716;2022-10-22T02:15:41;16.30;88.70
75161;DHT22;63738;50.096;8.716;2022-10-22T02:18:08;16.30;88.60
75161;DHT22;63738;50.096;8.716;2022-10-22T02:20:36;16.20;89.00
75161;DHT22;63738;50.096;8.716;2022-10-22T02:23:03;16.20;88.20
75161;DHT22;63738;50.096;8.716;2022-10-22T02:25:35;16.10;88.80
75161;DHT22;63738;50.096;8.716;2022-10-22T02:28:18;16.10;88.70
75161;DHT22;63738;50.096;8.716;2022-10-22T02:30:52;16.20;88.60
75161;DHT22;63738;50.096;8.716;2022-10-22T02:33:23;16.20;88.40
75161;DHT22;63738;50.096;8.716;2022-10-22T02:35:51;16.20;88.60
75161;DHT22;63738;50.096;8.716;2022-10-22T02:38:18;16.10;88.40
75161;DHT22;63738;50.096;8.716;2022-10-22T02:40:43;16.10;88.80
75161;DHT22;63738;50.096;8.716;2022-10-22T02:43:09;16.10;88.40
75161;DHT22;63738;50.096;8.716;2022-10-22T02:45:35;16.00;88.50
75161;DHT22;63738;50.096;8.716;2022-10-22T02:48:02;16.10;88.40
75161;DHT22;63738;50.096;8.716;2022-10-22T02:50:28;16.00;88.50
75161;DHT22;63738;50.096;8.716;2022-10-22T02:52:53;16.00;88.40
75161;DHT22;63738;50.096;8.716;2022-10-22T02:55:19;16.00;88.30
75161;DHT22;63738;50.096;8.716;2022-10-22T02:57:45;16.00;88.20
75161;DHT22;63738;50.096;8.716;2022-10-22T03:00:11;16.00;88.30
75161;DHT22;63738;50.096;8.716;2022-10-22T03:02:37;16.00;88.30
75161;DHT22;63738;50.096;8.716;2022-10-22T03:05:03;16.00;88.50
75161;DHT22;63738;50.096;8.716;2022-10-22T03:07:28;16.00;88.60
75161;DHT22;63738;50.096;8.716;2022-10-22T03:09:54;16.00;88.50
75161;DHT22;63738;50.096;8.716;2022-10-22T03:12:19;16.10;88.10
75161;DHT22;63738;50.096;8.716;2022-10-22T03:14:45;16.10;88.00
75161;DHT22;63738;50.096;8.716;2022-10-22T03:17:11;16.10;88.10
75161;DHT22;63738;50.096;8.716;2022-10-22T03:19:36;16.10;88.10
75161;DHT22;63738;50.096;8.716;2022-10-22T03:22:04;16.00;88.10
75161;DHT22;63738;50.096;8.716;2022-10-22T03:24:43;16.00;88.50
75161;DHT22;63738;50.096;8.716;2022-10-22T03:27:10;16.00;88.30
75161;DHT22;63738;50.096;8.716;2022-10-22T03:29:37;16.00;87.90
75161;DHT22;63738;50.096;8.716;2022-10-22T03:32:04;16.10;88.00
75161;DHT22;63738;50.096;8.716;2022-10-22T03:34:30;16.00;87.80
75161;DHT22;63738;50.096;8.716;2022-10-22T03:36:57;16.00;87.90
75161;DHT22;63738;50.096;8.716;2022-10-22T03:39:24;16.00;88.00
75161;DHT22;63738;50.096;8.716;2022-10-22T03:41:51;16.00;88.30
75161;DHT22;63738;50.096;8.716;2022-10-22T03:44:18;16.00;88.60
75161;DHT22;63738;50.096;8.716;2022-10-22T03:46:44;16.00;88.70
75161;DHT22;63738;50.096;8.716;2022-10-22T03:49:09;16.10;88.70
75161;DHT22;63738;50.096;8.716;2022-10-22T03:51:35;16.10;88.90
75161;DHT22;63738;50.096;8.716;2022-10-22T03:54:01;16.00;89.00
75161;DHT22;63738;50.096;8.716;2022-10-22T03:56:27;16.00;89.00
75161;DHT22;63738;50.096;8.716;2022-10-22T03:58:55;16.10;88.90
75161;DHT22;63738;50.096;8.716;2022-10-22T04:01:20;16.10;88.60
75161;DHT22;63738;50.096;8.716;2022-10-22T04:03:46;16.10;88.10
75161;DHT22;63738;50.096;8.716;2022-10-22T04:06:12;16.10;88.00
75161;DHT22;63738;50.096;8.716;2022-10-22T04:08:39;16.10;88.00
75161;DHT22;63738;50.096;8.716;2022-10-22T04:11:06;16.10;88.00
75161;DHT22;63738;50.096;8.716;2022-10-22T04:13:31;16.00;88.30
75161;DHT22;63738;50.096;8.716;2022-10-22T04:16:10;16.10;88.00
75161;DHT22;63738;50.096;8.716;2022-10-22T04:18:37;16.00;88.10
75161;DHT22;63738;50.096;8.716;2022-10-22T04:21:03;16.10;88.10
75161;DHT22;63738;50.096;8.716;2022-10-22T04:23:29;16.10;88.00
75161;DHT22;63738;50.096;8.716;2022-10-22T04:25:58;16.10;88.30
75161;DHT22;63738;50.096;8.716;2022-10-22T04:28:24;16.10;88.20
75161;DHT22;63738;50.096;8.716;2022-10-22T04:30:50;16.20;88.00
75161;DHT22;63738;50.096;8.716;2022-10-22T04:33:15;16.10;88.10
75161;DHT22;63738;50.096;8.716;2022-10-22T04:35:41;16.10;87.90
75161;DHT22;63738;50.096;8.716;2022-10-22T04:38:07;16.10;87.90
75161;DHT22;63738;50.096;8.716;2022-10-22T04:40:32;16.10;88.10
75161;DHT22;63738;50.096;8.716;2022-10-22T04:42:58;16.10;87.90
75161;DHT22;63738;50.096;8.716;2022-10-22T04:45:23;16.10;87.90
75161;DHT22;63738;50.096;8.716;2022-10-22T04:47:49;16.00;88.00
75161;DHT22;63738;50.096;8.716;2022-10-22T04:50:14;16.10;87.70
75161;DHT22;63738;50.096;8.716;2022-10-22T04:52:40;16.00;87.90
75161;DHT22;63738;50.096;8.716;2022-10-22T04:55:08;16.00;87.90
75161;DHT22;63738;50.096;8.716;2022-10-22T04:57:34;16.00;88.00
75161;DHT22;63738;50.096;8.716;2022-10-22T04:59:59;16.00;88.10
75161;DHT22;63738;50.096;8.716;2022-10-22T05:02:25;15.90;88.30
75161;DHT22;63738;50.096;8.716;2022-10-22T05:04:50;15.90;88.30
75161;DHT22;63738;50.096;8.716;2022-10-22T05:07:17;15.80;88.40
75161;DHT22;63738;50.096;8.716;2022-10-22T05:09:42;15.90;88.40
75161;DHT22;63738;50.096;8.716;2022-10-22T05:12:08;16.00;88.20
75161;DHT22;63738;50.096;8.716;2022-10-22T05:14:33;16.00;88.00
75161;DHT22;63738;50.096;8.716;2022-10-22T05:16:59;15.90;88.20
75161;DHT22;63738;50.096;8.716;2022-10-22T05:19:27;15.90;88.20
75161;DHT22;63738;50.096;8.716;2022-10-22T05:21:56;15.90;88.30
75161;DHT22;63738;50.096;8.716;2022-10-22T05:24:22;16.00;88.00
75161;DHT22;63738;50.096;8.716;2022-10-22T05:26:48;16.00;87.90
75161;DHT22;63738;50.096;8.716;2022-10-22T05:29:14;16.00;87.80
75161;DHT22;63738;50.096;8.716;2022-10-22T05:31:39;15.90;88.20
75161;DHT22;63738;50.096;8.716;2022-10-22T05:34:05;15.90;88.20
75161;DHT22;63738;50.096;8.716;2022-10-22T05:36:31;15.90;88.10
75161;DHT22;63738;50.096;8.716;2022-10-22T05:38:57;15.90;88.30
75161;DHT22;63738;50.096;8.716;2022-10-22T05:41:25;15.90;88.30
75161;DHT22;63738;50.096;8.716;2022-10-22T05:43:53;15.90;87.90
75161;DHT22;63738;50.096;8.716;2022-10-22T05:46:21;15.90;88.10
75161;DHT22;63738;50.096;8.716;2022-10-22T05:48:58;16.00;87.80
75161;DHT22;63738;50.096;8.716;2022-10-22T05:51:25;16.00;87.70
75161;DHT22;63738;50.096;8.716;2022-10-22T05:53:53;15.90;87.90
75161;DHT22;63738;50.096;8.716;2022-10-22T05:56:19;15.90;87.90
75161;DHT22;63738;50.096;8.716;2022-10-22T05:58:45;15.90;87.80
75161;DHT22;63738;50.096;8.716;2022-10-22T06:01:19;16.00;87.90
75161;DHT22;63738;50.096;8.716;2022-10-22T06:03:46;15.90;88.00
75161;DHT22;63738;50.096;8.716;2022-10-22T06:06:25;15.80;88.20
75161;DHT22;63738;50.096;8.716;2022-10-22T06:08:52;16.00;87.80
75161;DHT22;63738;50.096;8.716;2022-10-22T06:11:20;15.90;87.80
75161;DHT22;63738;50.096;8.716;2022-10-22T06:13:47;15.90;87.80
75161;DHT22;63738;50.096;8.716;2022-10-22T06:16:13;15.80;88.00
75161;DHT22;63738;50.096;8.716;2022-10-22T06:18:39;15.80;88.00
75161;DHT22;63738;50.096;8.716;2022-10-22T06:21:10;15.90;87.80
75161;DHT22;63738;50.096;8.716;2022-10-22T06:23:36;15.90;87.80
75161;DHT22;63738;50.096;8.716;2022-10-22T06:26:03;16.00;87.40
75161;DHT22;63738;50.096;8.716;2022-10-22T06:28:29;15.90;87.40
75161;DHT22;63738;50.096;8.716;2022-10-22T06:30:59;15.90;87.20
75161;DHT22;63738;50.096;8.716;2022-10-22T06:33:25;15.80;87.50
75161;DHT22;63738;50.096;8.716;2022-10-22T06:35:51;15.80;87.40
75161;DHT22;63738;50.096;8.716;2022-10-22T06:38:17;15.80;87.60
75161;DHT22;63738;50.096;8.716;2022-10-22T06:40:43;15.70;87.60
75161;DHT22;63738;50.096;8.716;2022-10-22T06:43:12;15.70;87.50
75161;DHT22;63738;50.096;8.716;2022-10-22T06:45:38;15.70;87.60
75161;DHT22;63738;50.096;8.716;2022-10-22T06:48:04;15.70;87.50
75161;DHT22;63738;50.096;8.716;2022-10-22T06:50:30;15.60;87.70
75161;DHT22;63738;50.096;8.716;2022-10-22T06:52:56;15.60;87.30
75161;DHT22;63738;50.096;8.716;2022-10-22T06:55:22;15.70;87.20
75161;DHT22;63738;50.096;8.716;2022-10-22T06:57:47;15.60;87.50
75161;DHT22;63738;50.096;8.716;2022-10-22T07:00:13;15.60;87.60
75161;DHT22;63738;50.096;8.716;2022-10-22T07:02:39;15.70;87.30
75161;DHT22;63738;50.096;8.716;2022-10-22T07:05:05;15.70;87.20
75161;DHT22;63738;50.096;8.716;2022-10-22T07:07:30;15.70;87.30
75161;DHT22;63738;50.096;8.716;2022-10-22T07:09:56;15.90;86.60
75161;DHT22;63738;50.096;8.716;2022-10-22T07:12:22;15.90;86.30
75161;DHT22;63738;50.096;8.716;2022-10-22T07:14:48;15.90;86.20
75161;DHT22;63738;50.096;8.716;2022-10-22T07:17:14;16.00;86.10
75161;DHT22;63738;50.096;8.716;2022-10-22T07:19:39;15.90;86.30
75161;DHT22;63738;50.096;8.716;2022-10-22T07:22:05;15.90;86.50
75161;DHT22;63738;50.096;8.716;2022-10-22T07:24:30;16.00;86.20
75161;DHT22;63738;50.096;8.716;2022-10-22T07:26:56;16.20;86.00
75161;DHT22;63738;50.096;8.716;2022-10-22T07:29:22;16.30;85.40
75161;DHT22;63738;50.096;8.716;2022-10-22T07:31:47;16.40;85.20
75161;DHT22;63738;50.096;8.716;2022-10-22T07:34:13;16.40;84.90
75161;DHT22;63738;50.096;8.716;2022-10-22T07:36:38;16.50;84.70
75161;DHT22;63738;50.096;8.716;2022-10-22T07:39:04;16.60;84.30
75161;DHT22;63738;50.096;8.716;2022-10-22T07:41:30;16.70;84.20
75161;DHT22;63738;50.096;8.716;2022-10-22T07:43:56;16.90;83.70
75161;DHT22;63738;50.096;8.716;2022-10-22T07:46:23;17.10;83.00
75161;DHT22;63738;50.096;8.716;2022-10-22T07:48:49;17.20;82.90
75161;DHT22;63738;50.096;8.716;2022-10-22T07:51:14;17.40;82.60
75161;DHT22;63738;50.096;8.716;2022-10-22T07:53:40;17.60;82.30
75161;DHT22;63738;50.096;8.716;2022-10-22T07:56:06;18.10;80.80
75161;DHT22;63738;50.096;8.716;2022-10-22T07:58:32;18.30;80.10
75161;DHT22;63738;50.096;8.716;2022-10-22T08:00:58;18.60;79.60
75161;DHT22;63738;50.096;8.716;2022-10-22T08:03:28;19.20;78.70
75161;DHT22;63738;50.096;8.716;2022-10-22T08:05:54;20.00;77.10
75161;DHT22;63738;50.096;8.716;2022-10-22T08:08:20;20.40;75.50
75161;DHT22;63738;50.096;8.716;2022-10-22T08:10:46;20.50;75.60
75161;DHT22;63738;50.096;8.716;2022-10-22T08:13:12;20.70;74.00
75161;DHT22;63738;50.096;8.716;2022-10-22T08:15:39;21.00;73.20
75161;DHT22;63738;50.096;8.716;2022-10-22T08:18:06;21.60;72.30
75161;DHT22;63738;50.096;8.716;2022-10-22T08:20:31;22.00;71.10
75161;DHT22;63738;50.096;8.716;2022-10-22T08:22:57;22.60;70.10
75161;DHT22;63738;50.096;8.716;2022-10-22T08:25:23;23.80;66.30
75161;DHT22;63738;50.096;8.716;2022-10-22T08:27:49;24.90;62.70
75161;DHT22;63738;50.096;8.716;2022-10-22T08:30:15;25.80;60.60
75161;DHT22;63738;50.096;8.716;2022-10-22T08:32:41;26.00;59.50
75161;DHT22;63738;50.096;8.716;2022-10-22T08:35:07;26.20;59.60
75161;DHT22;63738;50.096;8.716;2022-10-22T08:37:32;26.70;57.30
75161;DHT22;63738;50.096;8.716;2022-10-22T08:39:58;27.10;56.90
75161;DHT22;63738;50.096;8.716;2022-10-22T08:45:27;26.80;56.90
75161;DHT22;63738;50.096;8.716;2022-10-22T08:50:55;27.50;55.70
75161;DHT22;63738;50.096;8.716;2022-10-22T08:53:56;27.80;54.80
75161;DHT22;63738;50.096;8.716;2022-10-22T08:56:28;28.60;53.00
75161;DHT22;63738;50.096;8.716;2022-10-22T09:01:39;29.20;51.00
75161;DHT22;63738;50.096;8.716;2022-10-22T09:04:25;29.80;50.00
75161;DHT22;63738;50.096;8.716;2022-10-22T09:06:54;30.40;49.20
75161;DHT22;63738;50.096;8.716;2022-10-22T09:09:28;31.00;48.70
75161;DHT22;63738;50.096;8.716;2022-10-22T09:11:58;31.60;48.10
75161;DHT22;63738;50.096;8.716;2022-10-22T09:14:25;32.10;45.80
75161;DHT22;63738;50.096;8.716;2022-10-22T09:19:25;32.60;46.10
75161;DHT22;63738;50.096;8.716;2022-10-22T09:24:35;33.80;43.10
75161;DHT22;63738;50.096;8.716;2022-10-22T09:27:15;34.00;43.20
75161;DHT22;63738;50.096;8.716;2022-10-22T09:29:42;33.00;43.60
75161;DHT22;63738;50.096;8.716;2022-10-22T09:32:07;34.10;42.70
75161;DHT22;63738;50.096;8.716;2022-10-22T09:34:33;34.80;41.10
75161;DHT22;63738;50.096;8.716;2022-10-22T09:37:02;33.70;42.50
75161;DHT22;63738;50.096;8.716;2022-10-22T09:39:32;34.00;42.50
75161;DHT22;63738;50.096;8.716;2022-10-22T09:41:59;34.50;41.60
75161;DHT22;63738;50.096;8.716;2022-10-22T09:44:24;35.30;40.30
75161;DHT22;63738;50.096;8.716;2022-10-22T09:46:50;35.90;39.50
75161;DHT22;63738;50.096;8.716;2022-10-22T09:49:18;36.20;39.30
75161;DHT22;63738;50.096;8.716;2022-10-22T09:51:56;36.00;39.10
75161;DHT22;63738;50.096;8.716;2022-10-22T09:54:23;35.50;39.20
75161;DHT22;63738;50.096;8.716;2022-10-22T09:57:16;35.20;39.90
75161;DHT22;63738;50.096;8.716;2022-10-22T09:59:44;34.40;40.50
75161;DHT22;63738;50.096;8.716;2022-10-22T10:02:14;35.30;39.40
75161;DHT22;63738;50.096;8.716;2022-10-22T10:04:49;35.80;39.10
75161;DHT22;63738;50.096;8.716;2022-10-22T10:07:18;36.20;38.90
75161;DHT22;63738;50.096;8.716;2022-10-22T10:09:44;36.80;38.10
75161;DHT22;63738;50.096;8.716;2022-10-22T10:12:32;37.10;38.20
75161;DHT22;63738;50.096;8.716;2022-10-22T10:15:04;38.10;36.80
75161;DHT22;63738;50.096;8.716;2022-10-22T10:25:41;37.80;36.50
75161;DHT22;63738;50.096;8.716;2022-10-22T10:34:44;37.30;36.50
75161;DHT22;63738;50.096;8.716;2022-10-22T10:37:58;37.40;36.60
75161;DHT22;63738;50.096;8.716;2022-10-22T10:40:38;36.50;37.50
75161;DHT22;63738;50.096;8.716;2022-10-22T10:48:28;34.40;39.20
75161;DHT22;63738;50.096;8.716;2022-10-22T10:58:59;30.90;44.60
75161;DHT22;63738;50.096;8.716;2022-10-22T11:01:41;28.90;47.80
75161;DHT22;63738;50.096;8.716;2022-10-22T11:06:56;26.10;53.30
75161;DHT22;63738;50.096;8.716;2022-10-22T11:09:38;25.50;53.80
75161;DHT22;63738;50.096;8.716;2022-10-22T11:12:16;25.00;55.30
75161;DHT22;63738;50.096;8.716;2022-10-22T11:15:01;24.60;56.00
75161;DHT22;63738;50.096;8.716;2022-10-22T11:17:35;24.20;56.80
75161;DHT22;63738;50.096;8.716;2022-10-22T11:20:27;24.20;57.10
75161;DHT22;63738;50.096;8.716;2022-10-22T11:23:10;23.90;57.70
75161;DHT22;63738;50.096;8.716;2022-10-22T11:25:43;23.70;58.90
75161;DHT22;63738;50.096;8.716;2022-10-22T11:28:26;24.20;58.60
75161;DHT22;63738;50.096;8.716;2022-10-22T11:31:00;25.60;54.60
75161;DHT22;63738;50.096;8.716;2022-10-22T11:33:36;25.80;54.30
75161;DHT22;63738;50.096;8.716;2022-10-22T11:36:06;27.60;51.40
75161;DHT22;63738;50.096;8.716;2022-10-22T11:38:33;30.30;47.30
75161;DHT22;63738;50.096;8.716;2022-10-22T11:41:04;30.30;46.60
75161;DHT22;63738;50.096;8.716;2022-10-22T11:43:50;30.70;45.80
75161;DHT22;63738;50.096;8.716;2022-10-22T11:48:41;28.10;49.40
75161;DHT22;63738;50.096;8.716;2022-10-22T11:51:34;28.20;49.20
75161;DHT22;63738;50.096;8.716;2022-10-22T11:54:07;30.60;46.00
75161;DHT22;63738;50.096;8.716;2022-10-22T11:56:51;30.60;45.50
75161;DHT22;63738;50.096;8.716;2022-10-22T11:59:38;29.40;46.70
75161;DHT22;63738;50.096;8.716;2022-10-22T12:05:16;28.10;49.50
75161;DHT22;63738;50.096;8.716;2022-10-22T12:10:25;30.20;45.30
75161;DHT22;63738;50.096;8.716;2022-10-22T12:13:04;28.80;47.50
75161;DHT22;63738;50.096;8.716;2022-10-22T12:15:46;27.50;50.10
75161;DHT22;63738;50.096;8.716;2022-10-22T12:18:12;26.60;51.80
75161;DHT22;63738;50.096;8.716;2022-10-22T12:20:38;26.30;53.70
75161;DHT22;63738;50.096;8.716;2022-10-22T12:23:05;25.60;55.10
75161;DHT22;63738;50.096;8.716;2022-10-22T12:25:33;26.60;53.10
75161;DHT22;63738;50.096;8.716;2022-10-22T12:28:00;28.00;50.50
75161;DHT22;63738;50.096;8.716;2022-10-22T12:30:29;27.40;50.10
75161;DHT22;63738;50.096;8.716;2022-10-22T12:32:57;26.10;53.40
75161;DHT22;63738;50.096;8.716;2022-10-22T12:35:27;24.80;55.80
75161;DHT22;63738;50.096;8.716;2022-10-22T12:37:55;24.10;57.00
75161;DHT22;63738;50.096;8.716;2022-10-22T12:43:01;23.30;59.90
75161;DHT22;63738;50.096;8.716;2022-10-22T12:45:31;23.10;59.90
75161;DHT22;63738;50.096;8.716;2022-10-22T12:48:03;22.90;60.20
75161;DHT22;63738;50.096;8.716;2022-10-22T12:50:35;23.30;60.80
75161;DHT22;63738;50.096;8.716;2022-10-22T12:53:06;24.50;57.60
75161;DHT22;63738;50.096;8.716;2022-10-22T12:55:37;24.90;56.60
75161;DHT22;63738;50.096;8.716;2022-10-22T12:58:05;25.00;56.90
75161;DHT22;63738;50.096;8.716;2022-10-22T13:00:33;24.50;56.70
75161;DHT22;63738;50.096;8.716;2022-10-22T13:03:03;24.00;58.10
75161;DHT22;63738;50.096;8.716;2022-10-22T13:05:33;23.30;60.80
75161;DHT22;63738;50.096;8.716;2022-10-22T13:08:09;23.00;61.80
75161;DHT22;63738;50.096;8.716;2022-10-22T13:10:39;22.70;62.90
75161;DHT22;63738;50.096;8.716;2022-10-22T13:13:06;22.70;62.50
75161;DHT22;63738;50.096;8.716;2022-10-22T13:15:35;22.80;61.10
75161;DHT22;63738;50.096;8.716;2022-10-22T13:18:19;22.80;61.30
75161;DHT22;63738;50.096;8.716;2022-10-22T13:23:19;22.70;60.60
75161;DHT22;63738;50.096;8.716;2022-10-22T13:25:56;22.90;59.80
75161;DHT22;63738;50.096;8.716;2022-10-22T13:28:23;22.80;60.60
75161;DHT22;63738;50.096;8.716;2022-10-22T13:31:00;22.80;61.20
75161;DHT22;63738;50.096;8.716;2022-10-22T13:33:34;22.60;61.40
75161;DHT22;63738;50.096;8.716;2022-10-22T13:36:00;22.90;61.10
75161;DHT22;63738;50.096;8.716;2022-10-22T13:38:27;22.80;61.50
75161;DHT22;63738;50.096;8.716;2022-10-22T13:40:54;22.70;61.30
75161;DHT22;63738;50.096;8.716;2022-10-22T13:43:21;23.10;61.00
75161;DHT22;63738;50.096;8.716;2022-10-22T13:45:48;23.60;59.00
75161;DHT22;63738;50.096;8.716;2022-10-22T13:48:18;23.30;60.00
75161;DHT22;63738;50.096;8.716;2022-10-22T13:50:46;23.40;60.80
75161;DHT22;63738;50.096;8.716;2022-10-22T13:53:17;23.20;59.80
75161;DHT22;63738;50.096;8.716;2022-10-22T13:55:43;22.90;61.10
75161;DHT22;63738;50.096;8.716;2022-10-22T13:58:22;22.70;60.70
75161;DHT22;63738;50.096;8.716;2022-10-22T14:00:54;22.40;60.90
75161;DHT22;63738;50.096;8.716;2022-10-22T14:03:30;22.20;62.30
75161;DHT22;63738;50.096;8.716;2022-10-22T14:05:56;22.20;62.50
75161;DHT22;63738;50.096;8.716;2022-10-22T14:08:23;22.10;63.10
75161;DHT22;63738;50.096;8.716;2022-10-22T14:10:50;22.00;63.70
75161;DHT22;63738;50.096;8.716;2022-10-22T14:13:17;22.10;63.60
75161;DHT22;63738;50.096;8.716;2022-10-22T14:15:45;22.10;64.10
75161;DHT22;63738;50.096;8.716;2022-10-22T14:18:15;21.80;64.90
75161;DHT22;63738;50.096;8.716;2022-10-22T14:20:51;21.60;65.40
75161;DHT22;63738;50.096;8.716;2022-10-22T14:23:22;21.50;65.50
75161;DHT22;63738;50.096;8.716;2022-10-22T14:25:48;21.60;64.20
75161;DHT22;63738;50.096;8.716;2022-10-22T14:28:16;21.30;64.30
75161;DHT22;63738;50.096;8.716;2022-10-22T14:30:42;21.20;64.80
75161;DHT22;63738;50.096;8.716;2022-10-22T14:33:29;21.20;64.60
75161;DHT22;63738;50.096;8.716;2022-10-22T14:35:55;21.20;65.00
75161;DHT22;63738;50.096;8.716;2022-10-22T14:38:21;21.30;65.30
75161;DHT22;63738;50.096;8.716;2022-10-22T14:40:47;21.30;64.90
75161;DHT22;63738;50.096;8.716;2022-10-22T14:43:20;21.20;65.40
75161;DHT22;63738;50.096;8.716;2022-10-22T14:45:46;21.30;65.70
75161;DHT22;63738;50.096;8.716;2022-10-22T14:48:12;21.20;66.90
75161;DHT22;63738;50.096;8.716;2022-10-22T14:50:41;21.20;66.80
75161;DHT22;63738;50.096;8.716;2022-10-22T14:53:06;21.10;66.20
75161;DHT22;63738;50.096;8.716;2022-10-22T14:55:32;20.90;66.60
75161;DHT22;63738;50.096;8.716;2022-10-22T14:57:58;21.00;68.10
75161;DHT22;63738;50.096;8.716;2022-10-22T15:00:23;21.10;66.90
75161;DHT22;63738;50.096;8.716;2022-10-22T15:02:49;21.30;65.40
75161;DHT22;63738;50.096;8.716;2022-10-22T15:05:15;21.30;66.10
75161;DHT22;63738;50.096;8.716;2022-10-22T15:07:42;21.40;66.00
75161;DHT22;63738;50.096;8.716;2022-10-22T15:10:09;21.30;65.90
75161;DHT22;63738;50.096;8.716;2022-10-22T15:12:35;21.10;66.10
75161;DHT22;63738;50.096;8.716;2022-10-22T15:15:02;21.00;67.10
75161;DHT22;63738;50.096;8.716;2022-10-22T15:17:28;20.90;67.30
75161;DHT22;63738;50.096;8.716;2022-10-22T15:19:53;20.80;67.80
75161;DHT22;63738;50.096;8.716;2022-10-22T15:22:21;20.70;68.40
75161;DHT22;63738;50.096;8.716;2022-10-22T15:24:47;20.50;69.10
75161;DHT22;63738;50.096;8.716;2022-10-22T15:27:14;20.50;68.50
75161;DHT22;63738;50.096;8.716;2022-10-22T15:29:40;20.50;68.50
75161;DHT22;63738;50.096;8.716;2022-10-22T15:32:06;20.40;69.00
75161;DHT22;63738;50.096;8.716;2022-10-22T15:34:35;20.30;69.50
75161;DHT22;63738;50.096;8.716;2022-10-22T15:37:03;20.30;70.50
75161;DHT22;63738;50.096;8.716;2022-10-22T15:39:30;20.20;70.80
75161;DHT22;63738;50.096;8.716;2022-10-22T15:41:55;20.10;71.10
75161;DHT22;63738;50.096;8.716;2022-10-22T15:44:26;20.00;71.40
75161;DHT22;63738;50.096;8.716;2022-10-22T15:46:53;20.00;71.40
75161;DHT22;63738;50.096;8.716;2022-10-22T15:49:25;20.10;71.80
75161;DHT22;63738;50.096;8.716;2022-10-22T15:51:52;20.00;71.70
75161;DHT22;63738;50.096;8.716;2022-10-22T15:54:20;19.90;72.50
75161;DHT22;63738;50.096;8.716;2022-10-22T15:56:47;19.80;73.90
75161;DHT22;63738;50.096;8.716;2022-10-22T15:59:14;19.70;74.40
75161;DHT22;63738;50.096;8.716;2022-10-22T16:01:42;19.70;74.80
75161;DHT22;63738;50.096;8.716;2022-10-22T16:04:08;19.70;74.20
75161;DHT22;63738;50.096;8.716;2022-10-22T16:06:50;19.60;74.20
75161;DHT22;63738;50.096;8.716;2022-10-22T16:09:21;19.60;73.70
75161;DHT22;63738;50.096;8.716;2022-10-22T16:11:47;19.50;74.40
75161;DHT22;63738;50.096;8.716;2022-10-22T16:14:14;19.40;75.10
75161;DHT22;63738;50.096;8.716;2022-10-22T16:16:43;19.30;75.40
75161;DHT22;63738;50.096;8.716;2022-10-22T16:19:14;19.20;75.80
75161;DHT22;63738;50.096;8.716;2022-10-22T16:21:40;19.10;75.50
75161;DHT22;63738;50.096;8.716;2022-10-22T16:24:07;19.00;75.60
75161;DHT22;63738;50.096;8.716;2022-10-22T16:26:33;18.90;76.00
75161;DHT22;63738;50.096;8.716;2022-10-22T16:28:59;18.80;77.00
75161;DHT22;63738;50.096;8.716;2022-10-22T16:31:25;18.70;77.50
75161;DHT22;63738;50.096;8.716;2022-10-22T16:33:50;18.70;77.70
75161;DHT22;63738;50.096;8.716;2022-10-22T16:36:18;18.50;78.00
75161;DHT22;63738;50.096;8.716;2022-10-22T16:38:44;18.50;77.60
75161;DHT22;63738;50.096;8.716;2022-10-22T16:41:18;18.40;77.90
75161;DHT22;63738;50.096;8.716;2022-10-22T16:43:45;18.30;77.60
75161;DHT22;63738;50.096;8.716;2022-10-22T16:46:13;18.20;78.40
75161;DHT22;63738;50.096;8.716;2022-10-22T16:48:47;18.20;78.30
75161;DHT22;63738;50.096;8.716;2022-10-22T16:51:15;18.10;79.50
75161;DHT22;63738;50.096;8.716;2022-10-22T16:53:42;18.00;79.80